sensor_id;sensor_type;location;lat;lon;timestamp;P1;durP1;ratioP1;P2;durP2;ratioP2
33802;SDS011;20110;53.120;5.786;2023-04-23T00:01:17;122.03;;;30.85;;
33802;SDS011;20110;53.120;5.786;2023-04-23T00:03:44;157.13;;;36.05;;
33802;SDS011;20110;53.120;5.786;2023-04-23T00:06:14;133.88;;;35.13;;
33802;SDS011;20110;53.120;5.786;2023-04-23T00:08:41;150.43;;;38.47;;
33802;SDS011;20110;53.120;5.786;2023-04-23T00:11:08;157.80;;;38.47;;
33802;SDS011;20110;53.120;5.786;2023-04-23T00:13:35;150.55;;;41.10;;
33802;SDS011;20110;53.120;5.786;2023-04-23T00:16:01;147.45;;;41.38;;
33802;SDS011;20110;53.120;5.786;2023-04-23T00:18:27;151.05;;;41.90;;
33802;SDS011;20110;53.120;5.786;2023-04-23T00:20:53;160.77;;;44.35;;
33802;SDS011;20110;53.120;5.786;2023-04-23T00:23:19;163.00;;;43.55;;
33802;SDS011;20110;53.120;5.786;2023-04-23T00:25:45;172.32;;;45.15;;
33802;SDS011;20110;53.120;5.786;2023-04-23T00:28:11;184.73;;;45.58;;
33802;SDS011;20110;53.120;5.786;2023-04-23T00:30:38;156.00;;;41.88;;
33802;SDS011;20110;53.120;5.786;2023-04-23T00:33:04;198.90;;;46.10;;
33802;SDS011;20110;53.120;5.786;2023-04-23T00:35:31;246.13;;;52.35;;
33802;SDS011;20110;53.120;5.786;2023-04-23T00:37:56;224.13;;;52.05;;
33802;SDS011;20110;53.120;5.786;2023-04-23T00:40:22;249.30;;;51.40;;
33802;SDS011;20110;53.120;5.786;2023-04-23T00:42:49;274.45;;;50.85;;
33802;SDS011;20110;53.120;5.786;2023-04-23T00:45:17;290.95;;;51.47;;
33802;SDS011;20110;53.120;5.786;2023-04-23T00:47:44;230.80;;;49.42;;
33802;SDS011;20110;53.120;5.786;2023-04-23T00:50:11;268.15;;;50.00;;
33802;SDS011;20110;53.120;5.786;2023-04-23T00:52:37;224.60;;;51.47;;
33802;SDS011;20110;53.120;5.786;2023-04-23T00:55:05;266.13;;;51.42;;
33802;SDS011;20110;53.120;5.786;2023-04-23T00:57:33;228.40;;;49.72;;
33802;SDS011;20110;53.120;5.786;2023-04-23T01:00:00;222.57;;;51.58;;
33802;SDS011;20110;53.120;5.786;2023-04-23T01:02:29;230.40;;;52.70;;
33802;SDS011;20110;53.120;5.786;2023-04-23T01:04:56;233.10;;;51.45;;
33802;SDS011;20110;53.120;5.786;2023-04-23T01:07:25;205.00;;;49.78;;
33802;SDS011;20110;53.120;5.786;2023-04-23T01:09:52;232.18;;;49.70;;
33802;SDS011;20110;53.120;5.786;2023-04-23T01:12:18;219.10;;;51.17;;
33802;SDS011;20110;53.120;5.786;2023-04-23T01:14:44;212.70;;;50.78;;
33802;SDS011;20110;53.120;5.786;2023-04-23T01:17:11;215.68;;;49.30;;
33802;SDS011;20110;53.120;5.786;2023-04-23T01:19:37;218.13;;;52.78;;
33802;SDS011;20110;53.120;5.786;2023-04-23T01:22:08;231.43;;;54.08;;
33802;SDS011;20110;53.120;5.786;2023-04-23T01:24:35;240.30;;;54.13;;
33802;SDS011;20110;53.120;5.786;2023-04-23T01:27:02;217.43;;;51.65;;
33802;SDS011;20110;53.120;5.786;2023-04-23T01:29:28;220.93;;;51.75;;
33802;SDS011;20110;53.120;5.786;2023-04-23T01:31:55;240.30;;;54.53;;
33802;SDS011;20110;53.120;5.786;2023-04-23T01:34:23;241.02;;;53.92;;
33802;SDS011;20110;53.120;5.786;2023-04-23T01:36:48;252.07;;;53.20;;
33802;SDS011;20110;53.120;5.786;2023-04-23T01:39:16;249.02;;;54.22;;
33802;SDS011;20110;53.120;5.786;2023-04-23T01:41:42;265.67;;;54.90;;
33802;SDS011;20110;53.120;5.786;2023-04-23T01:44:08;247.48;;;55.72;;
33802;SDS011;20110;53.120;5.786;2023-04-23T01:46:34;268.45;;;58.05;;
33802;SDS011;20110;53.120;5.786;2023-04-23T01:49:01;245.30;;;54.42;;
33802;SDS011;20110;53.120;5.786;2023-04-23T01:51:28;292.38;;;59.53;;
33802;SDS011;20110;53.120;5.786;2023-04-23T01:53:54;336.80;;;59.15;;
33802;SDS011;20110;53.120;5.786;2023-04-23T01:56:24;402.98;;;61.72;;
33802;SDS011;20110;53.120;5.786;2023-04-23T01:58:52;477.17;;;68.15;;
33802;SDS011;20110;53.120;5.786;2023-04-23T02:01:18;376.77;;;61.55;;
33802;SDS011;20110;53.120;5.786;2023-04-23T02:03:44;360.70;;;60.47;;
33802;SDS011;20110;53.120;5.786;2023-04-23T02:06:11;359.50;;;63.38;;
33802;SDS011;20110;53.120;5.786;2023-04-23T02:08:37;383.05;;;64.63;;
33802;SDS011;20110;53.120;5.786;2023-04-23T02:11:04;646.92;;;81.75;;
33802;SDS011;20110;53.120;5.786;2023-04-23T02:13:33;943.00;;;102.03;;
33802;SDS011;20110;53.120;5.786;2023-04-23T02:15:59;1056.82;;;105.80;;
33802;SDS011;20110;53.120;5.786;2023-04-23T02:18:25;1279.50;;;124.88;;
33802;SDS011;20110;53.120;5.786;2023-04-23T02:20:51;1296.38;;;130.20;;
33802;SDS011;20110;53.120;5.786;2023-04-23T02:23:18;1270.43;;;124.68;;
33802;SDS011;20110;53.120;5.786;2023-04-23T02:25:43;994.15;;;101.53;;
33802;SDS011;20110;53.120;5.786;2023-04-23T02:28:10;1291.07;;;127.97;;
33802;SDS011;20110;53.120;5.786;2023-04-23T02:30:38;981.55;;;101.38;;
33802;SDS011;20110;53.120;5.786;2023-04-23T02:33:11;1180.35;;;119.90;;
33802;SDS011;20110;53.120;5.786;2023-04-23T02:35:38;950.00;;;100.40;;
33802;SDS011;20110;53.120;5.786;2023-04-23T02:38:03;1186.40;;;122.75;;
33802;SDS011;20110;53.120;5.786;2023-04-23T02:40:29;1174.75;;;121.38;;
33802;SDS011;20110;53.120;5.786;2023-04-23T02:42:55;1115.15;;;120.50;;
33802;SDS011;20110;53.120;5.786;2023-04-23T02:45:21;1096.88;;;120.78;;
33802;SDS011;20110;53.120;5.786;2023-04-23T02:47:47;1066.45;;;109.50;;
33802;SDS011;20110;53.120;5.786;2023-04-23T02:50:13;961.72;;;102.07;;
33802;SDS011;20110;53.120;5.786;2023-04-23T02:52:38;1102.30;;;117.03;;
33802;SDS011;20110;53.120;5.786;2023-04-23T02:55:05;900.13;;;97.13;;
33802;SDS011;20110;53.120;5.786;2023-04-23T02:57:32;1180.43;;;119.47;;
33802;SDS011;20110;53.120;5.786;2023-04-23T02:59:58;991.55;;;103.38;;
33802;SDS011;20110;53.120;5.786;2023-04-23T03:02:24;1269.63;;;132.15;;
33802;SDS011;20110;53.120;5.786;2023-04-23T03:04:50;1248.85;;;128.50;;
33802;SDS011;20110;53.120;5.786;2023-04-23T03:07:16;1300.28;;;132.15;;
33802;SDS011;20110;53.120;5.786;2023-04-23T03:09:42;1204.88;;;125.20;;
33802;SDS011;20110;53.120;5.786;2023-04-23T03:12:08;907.85;;;101.05;;
33802;SDS011;20110;53.120;5.786;2023-04-23T03:14:34;1356.40;;;140.65;;
33802;SDS011;20110;53.120;5.786;2023-04-23T03:16:59;1290.50;;;137.00;;
33802;SDS011;20110;53.120;5.786;2023-04-23T03:19:25;1231.65;;;137.77;;
33802;SDS011;20110;53.120;5.786;2023-04-23T03:21:52;1177.10;;;134.82;;
33802;SDS011;20110;53.120;5.786;2023-04-23T03:24:18;1251.20;;;141.70;;
33802;SDS011;20110;53.120;5.786;2023-04-23T03:26:44;1081.72;;;127.75;;
33802;SDS011;20110;53.120;5.786;2023-04-23T03:29:11;1248.07;;;137.55;;
33802;SDS011;20110;53.120;5.786;2023-04-23T03:31:37;1139.15;;;135.38;;
33802;SDS011;20110;53.120;5.786;2023-04-23T03:34:03;828.53;;;115.93;;
33802;SDS011;20110;53.120;5.786;2023-04-23T03:36:29;1015.17;;;133.07;;
33802;SDS011;20110;53.120;5.786;2023-04-23T03:38:55;736.63;;;96.07;;
33802;SDS011;20110;53.120;5.786;2023-04-23T03:41:20;541.22;;;92.43;;
33802;SDS011;20110;53.120;5.786;2023-04-23T03:43:46;589.40;;;92.22;;
33802;SDS011;20110;53.120;5.786;2023-04-23T03:46:12;461.90;;;80.30;;
33802;SDS011;20110;53.120;5.786;2023-04-23T03:48:38;386.67;;;71.60;;
33802;SDS011;20110;53.120;5.786;2023-04-23T03:51:03;443.35;;;87.22;;
33802;SDS011;20110;53.120;5.786;2023-04-23T03:53:29;406.35;;;82.40;;
33802;SDS011;20110;53.120;5.786;2023-04-23T03:55:55;352.75;;;78.60;;
33802;SDS011;20110;53.120;5.786;2023-04-23T03:58:21;321.15;;;72.47;;
33802;SDS011;20110;53.120;5.786;2023-04-23T04:00:46;374.38;;;74.78;;
33802;SDS011;20110;53.120;5.786;2023-04-23T04:03:12;397.27;;;84.18;;
33802;SDS011;20110;53.120;5.786;2023-04-23T04:05:38;407.75;;;85.35;;
33802;SDS011;20110;53.120;5.786;2023-04-23T04:08:04;385.33;;;84.32;;
33802;SDS011;20110;53.120;5.786;2023-04-23T04:10:30;372.92;;;86.00;;
33802;SDS011;20110;53.120;5.786;2023-04-23T04:12:55;325.52;;;79.88;;
33802;SDS011;20110;53.120;5.786;2023-04-23T04:15:21;317.27;;;74.45;;
33802;SDS011;20110;53.120;5.786;2023-04-23T04:17:47;394.45;;;91.72;;
33802;SDS011;20110;53.120;5.786;2023-04-23T04:20:13;415.88;;;90.78;;
33802;SDS011;20110;53.120;5.786;2023-04-23T04:22:39;307.73;;;80.43;;
33802;SDS011;20110;53.120;5.786;2023-04-23T04:25:05;282.63;;;76.45;;
33802;SDS011;20110;53.120;5.786;2023-04-23T04:27:31;335.73;;;80.97;;
33802;SDS011;20110;53.120;5.786;2023-04-23T04:29:58;253.05;;;72.25;;
33802;SDS011;20110;53.120;5.786;2023-04-23T04:32:26;277.55;;;75.28;;
33802;SDS011;20110;53.120;5.786;2023-04-23T04:34:52;336.65;;;76.03;;
33802;SDS011;20110;53.120;5.786;2023-04-23T04:37:18;346.33;;;84.80;;
33802;SDS011;20110;53.120;5.786;2023-04-23T04:39:45;366.20;;;84.05;;
33802;SDS011;20110;53.120;5.786;2023-04-23T04:42:11;374.17;;;85.07;;
33802;SDS011;20110;53.120;5.786;2023-04-23T04:44:37;288.98;;;76.32;;
33802;SDS011;20110;53.120;5.786;2023-04-23T04:47:03;362.58;;;80.53;;
33802;SDS011;20110;53.120;5.786;2023-04-23T04:49:31;437.95;;;88.05;;
33802;SDS011;20110;53.120;5.786;2023-04-23T04:51:57;418.58;;;84.18;;
33802;SDS011;20110;53.120;5.786;2023-04-23T04:54:24;341.30;;;82.68;;
33802;SDS011;20110;53.120;5.786;2023-04-23T04:56:50;324.65;;;76.22;;
33802;SDS011;20110;53.120;5.786;2023-04-23T04:59:16;244.15;;;70.07;;
33802;SDS011;20110;53.120;5.786;2023-04-23T05:01:42;268.90;;;71.25;;
33802;SDS011;20110;53.120;5.786;2023-04-23T05:04:08;335.83;;;80.15;;
33802;SDS011;20110;53.120;5.786;2023-04-23T05:06:34;276.45;;;72.93;;
33802;SDS011;20110;53.120;5.786;2023-04-23T05:08:59;175.02;;;53.95;;
33802;SDS011;20110;53.120;5.786;2023-04-23T05:11:25;282.95;;;72.78;;
33802;SDS011;20110;53.120;5.786;2023-04-23T05:13:51;292.98;;;76.72;;
33802;SDS011;20110;53.120;5.786;2023-04-23T05:16:17;228.50;;;67.60;;
33802;SDS011;20110;53.120;5.786;2023-04-23T05:18:43;261.30;;;72.70;;
33802;SDS011;20110;53.120;5.786;2023-04-23T05:21:09;236.60;;;65.18;;
33802;SDS011;20110;53.120;5.786;2023-04-23T05:23:35;128.68;;;43.78;;
33802;SDS011;20110;53.120;5.786;2023-04-23T05:26:01;209.73;;;66.20;;
33802;SDS011;20110;53.120;5.786;2023-04-23T05:28:27;185.82;;;59.85;;
33802;SDS011;20110;53.120;5.786;2023-04-23T05:30:55;168.07;;;59.83;;
33802;SDS011;20110;53.120;5.786;2023-04-23T05:33:21;235.05;;;64.90;;
33802;SDS011;20110;53.120;5.786;2023-04-23T05:35:47;191.27;;;60.35;;
33802;SDS011;20110;53.120;5.786;2023-04-23T05:38:13;166.13;;;58.65;;
33802;SDS011;20110;53.120;5.786;2023-04-23T05:40:39;181.20;;;57.92;;
33802;SDS011;20110;53.120;5.786;2023-04-23T05:43:04;175.85;;;62.00;;
33802;SDS011;20110;53.120;5.786;2023-04-23T05:45:30;164.38;;;55.78;;
33802;SDS011;20110;53.120;5.786;2023-04-23T05:47:56;155.60;;;56.40;;
33802;SDS011;20110;53.120;5.786;2023-04-23T05:50:22;153.68;;;57.55;;
33802;SDS011;20110;53.120;5.786;2023-04-23T05:52:48;141.98;;;55.03;;
33802;SDS011;20110;53.120;5.786;2023-04-23T05:55:15;147.35;;;57.38;;
33802;SDS011;20110;53.120;5.786;2023-04-23T05:57:42;154.50;;;57.22;;
33802;SDS011;20110;53.120;5.786;2023-04-23T06:00:08;147.82;;;56.03;;
33802;SDS011;20110;53.120;5.786;2023-04-23T06:02:35;155.32;;;57.63;;
33802;SDS011;20110;53.120;5.786;2023-04-23T06:05:02;140.48;;;53.72;;
33802;SDS011;20110;53.120;5.786;2023-04-23T06:07:30;119.65;;;48.25;;
33802;SDS011;20110;53.120;5.786;2023-04-23T06:09:56;143.05;;;55.33;;
33802;SDS011;20110;53.120;5.786;2023-04-23T06:12:22;112.55;;;49.97;;
33802;SDS011;20110;53.120;5.786;2023-04-23T06:14:48;112.25;;;46.53;;
33802;SDS011;20110;53.120;5.786;2023-04-23T06:17:13;129.57;;;52.00;;
33802;SDS011;20110;53.120;5.786;2023-04-23T06:19:40;129.07;;;49.95;;
33802;SDS011;20110;53.120;5.786;2023-04-23T06:22:06;97.15;;;40.88;;
33802;SDS011;20110;53.120;5.786;2023-04-23T06:24:32;119.20;;;50.90;;
33802;SDS011;20110;53.120;5.786;2023-04-23T06:26:57;122.85;;;51.17;;
33802;SDS011;20110;53.120;5.786;2023-04-23T06:29:23;119.45;;;49.20;;
33802;SDS011;20110;53.120;5.786;2023-04-23T06:31:49;111.63;;;45.58;;
33802;SDS011;20110;53.120;5.786;2023-04-23T06:34:15;131.85;;;52.20;;
33802;SDS011;20110;53.120;5.786;2023-04-23T06:36:42;118.05;;;51.45;;
33802;SDS011;20110;53.120;5.786;2023-04-23T06:39:08;110.07;;;47.30;;
33802;SDS011;20110;53.120;5.786;2023-04-23T06:41:34;114.95;;;48.80;;
33802;SDS011;20110;53.120;5.786;2023-04-23T06:44:00;110.07;;;50.17;;
33802;SDS011;20110;53.120;5.786;2023-04-23T06:46:26;101.38;;;44.63;;
33802;SDS011;20110;53.120;5.786;2023-04-23T06:48:52;105.00;;;45.85;;
33802;SDS011;20110;53.120;5.786;2023-04-23T06:51:19;111.93;;;48.67;;
33802;SDS011;20110;53.120;5.786;2023-04-23T06:53:45;94.85;;;43.08;;
33802;SDS011;20110;53.120;5.786;2023-04-23T06:56:11;100.53;;;47.13;;
33802;SDS011;20110;53.120;5.786;2023-04-23T06:58:37;81.68;;;38.90;;
33802;SDS011;20110;53.120;5.786;2023-04-23T07:01:03;84.80;;;39.47;;
33802;SDS011;20110;53.120;5.786;2023-04-23T07:03:29;95.72;;;43.53;;
33802;SDS011;20110;53.120;5.786;2023-04-23T07:05:55;77.40;;;38.05;;
33802;SDS011;20110;53.120;5.786;2023-04-23T07:08:21;89.20;;;42.40;;
33802;SDS011;20110;53.120;5.786;2023-04-23T07:10:47;95.75;;;46.55;;
33802;SDS011;20110;53.120;5.786;2023-04-23T07:13:14;80.15;;;39.88;;
33802;SDS011;20110;53.120;5.786;2023-04-23T07:15:40;92.43;;;43.42;;
33802;SDS011;20110;53.120;5.786;2023-04-23T07:18:07;84.32;;;42.17;;
33802;SDS011;20110;53.120;5.786;2023-04-23T07:20:33;91.28;;;42.28;;
33802;SDS011;20110;53.120;5.786;2023-04-23T07:23:00;66.15;;;32.13;;
33802;SDS011;20110;53.120;5.786;2023-04-23T07:25:28;75.38;;;36.97;;
33802;SDS011;20110;53.120;5.786;2023-04-23T07:27:55;77.72;;;38.70;;
33802;SDS011;20110;53.120;5.786;2023-04-23T07:30:22;72.72;;;36.80;;
33802;SDS011;20110;53.120;5.786;2023-04-23T07:32:51;73.38;;;37.45;;
33802;SDS011;20110;53.120;5.786;2023-04-23T07:35:17;79.40;;;39.17;;
33802;SDS011;20110;53.120;5.786;2023-04-23T07:37:43;58.10;;;27.95;;
33802;SDS011;20110;53.120;5.786;2023-04-23T07:40:09;66.65;;;34.30;;
33802;SDS011;20110;53.120;5.786;2023-04-23T07:42:35;65.28;;;32.08;;
33802;SDS011;20110;53.120;5.786;2023-04-23T07:45:01;66.22;;;35.33;;
33802;SDS011;20110;53.120;5.786;2023-04-23T07:47:28;44.05;;;25.55;;
33802;SDS011;20110;53.120;5.786;2023-04-23T07:49:54;58.45;;;31.10;;
33802;SDS011;20110;53.120;5.786;2023-04-23T07:52:19;57.28;;;31.83;;
33802;SDS011;20110;53.120;5.786;2023-04-23T07:54:47;64.95;;;31.58;;
33802;SDS011;20110;53.120;5.786;2023-04-23T07:57:12;63.78;;;33.67;;
33802;SDS011;20110;53.120;5.786;2023-04-23T07:59:38;65.65;;;33.53;;
33802;SDS011;20110;53.120;5.786;2023-04-23T08:02:04;59.83;;;32.28;;
33802;SDS011;20110;53.120;5.786;2023-04-23T08:04:30;49.70;;;28.83;;
33802;SDS011;20110;53.120;5.786;2023-04-23T08:06:56;46.50;;;25.83;;
33802;SDS011;20110;53.120;5.786;2023-04-23T08:09:22;55.45;;;27.13;;
33802;SDS011;20110;53.120;5.786;2023-04-23T08:11:49;52.25;;;29.08;;
33802;SDS011;20110;53.120;5.786;2023-04-23T08:14:14;49.85;;;28.30;;
33802;SDS011;20110;53.120;5.786;2023-04-23T08:16:42;44.75;;;26.63;;
33802;SDS011;20110;53.120;5.786;2023-04-23T08:19:08;49.20;;;25.73;;
33802;SDS011;20110;53.120;5.786;2023-04-23T08:21:34;51.65;;;27.20;;
33802;SDS011;20110;53.120;5.786;2023-04-23T08:24:01;45.53;;;26.42;;
33802;SDS011;20110;53.120;5.786;2023-04-23T08:26:28;40.88;;;23.52;;
33802;SDS011;20110;53.120;5.786;2023-04-23T08:28:55;44.53;;;24.83;;
33802;SDS011;20110;53.120;5.786;2023-04-23T08:31:21;41.17;;;23.55;;
33802;SDS011;20110;53.120;5.786;2023-04-23T08:33:47;48.83;;;25.73;;
33802;SDS011;20110;53.120;5.786;2023-04-23T08:36:13;30.52;;;18.80;;
33802;SDS011;20110;53.120;5.786;2023-04-23T08:38:39;41.88;;;23.75;;
33802;SDS011;20110;53.120;5.786;2023-04-23T08:41:06;39.38;;;23.73;;
33802;SDS011;20110;53.120;5.786;2023-04-23T08:43:51;34.67;;;22.80;;
33802;SDS011;20110;53.120;5.786;2023-04-23T08:46:36;37.08;;;21.73;;
33802;SDS011;20110;53.120;5.786;2023-04-23T08:49:07;30.45;;;18.20;;
33802;SDS011;20110;53.120;5.786;2023-04-23T08:51:48;30.98;;;17.63;;
33802;SDS011;20110;53.120;5.786;2023-04-23T08:54:18;19.80;;;12.70;;
33802;SDS011;20110;53.120;5.786;2023-04-23T08:56:51;16.50;;;10.57;;
33802;SDS011;20110;53.120;5.786;2023-04-23T08:59:30;26.38;;;11.60;;
33802;SDS011;20110;53.120;5.786;2023-04-23T09:01:56;17.50;;;10.55;;
33802;SDS011;20110;53.120;5.786;2023-04-23T09:04:23;24.98;;;13.27;;
33802;SDS011;20110;53.120;5.786;2023-04-23T09:06:50;21.75;;;11.75;;
33802;SDS011;20110;53.120;5.786;2023-04-23T09:09:16;16.20;;;10.35;;
33802;SDS011;20110;53.120;5.786;2023-04-23T09:11:47;24.50;;;12.65;;
33802;SDS011;20110;53.120;5.786;2023-04-23T09:14:14;21.88;;;11.32;;
33802;SDS011;20110;53.120;5.786;2023-04-23T09:16:41;21.00;;;12.45;;
33802;SDS011;20110;53.120;5.786;2023-04-23T09:19:08;16.92;;;12.20;;
33802;SDS011;20110;53.120;5.786;2023-04-23T09:21:35;16.15;;;11.02;;
33802;SDS011;20110;53.120;5.786;2023-04-23T09:24:05;18.45;;;11.38;;
33802;SDS011;20110;53.120;5.786;2023-04-23T09:26:46;25.77;;;12.80;;
33802;SDS011;20110;53.120;5.786;2023-04-23T09:29:20;19.52;;;12.02;;
33802;SDS011;20110;53.120;5.786;2023-04-23T09:32:04;27.27;;;14.85;;
33802;SDS011;20110;53.120;5.786;2023-04-23T09:34:33;18.77;;;11.27;;
33802;SDS011;20110;53.120;5.786;2023-04-23T09:37:03;18.95;;;10.68;;
33802;SDS011;20110;53.120;5.786;2023-04-23T09:39:34;21.08;;;12.68;;
33802;SDS011;20110;53.120;5.786;2023-04-23T09:42:02;23.10;;;12.30;;
33802;SDS011;20110;53.120;5.786;2023-04-23T09:44:33;19.98;;;11.75;;
33802;SDS011;20110;53.120;5.786;2023-04-23T09:47:04;18.77;;;9.82;;
33802;SDS011;20110;53.120;5.786;2023-04-23T09:49:45;16.92;;;11.90;;
33802;SDS011;20110;53.120;5.786;2023-04-23T09:52:12;21.05;;;12.73;;
33802;SDS011;20110;53.120;5.786;2023-04-23T09:54:38;13.90;;;9.82;;
33802;SDS011;20110;53.120;5.786;2023-04-23T09:57:04;14.80;;;8.77;;
33802;SDS011;20110;53.120;5.786;2023-04-23T09:59:33;22.35;;;9.50;;
33802;SDS011;20110;53.120;5.786;2023-04-23T10:02:06;13.50;;;7.10;;
33802;SDS011;20110;53.120;5.786;2023-04-23T10:04:33;12.82;;;8.68;;
33802;SDS011;20110;53.120;5.786;2023-04-23T10:07:01;15.05;;;8.95;;
33802;SDS011;20110;53.120;5.786;2023-04-23T10:09:32;10.95;;;8.18;;
33802;SDS011;20110;53.120;5.786;2023-04-23T10:11:59;12.70;;;9.18;;
33802;SDS011;20110;53.120;5.786;2023-04-23T10:14:27;16.90;;;10.73;;
33802;SDS011;20110;53.120;5.786;2023-04-23T10:17:00;16.90;;;10.13;;
33802;SDS011;20110;53.120;5.786;2023-04-23T10:19:28;15.68;;;10.75;;
33802;SDS011;20110;53.120;5.786;2023-04-23T10:21:57;15.45;;;11.23;;
33802;SDS011;20110;53.120;5.786;2023-04-23T10:24:31;15.45;;;10.63;;
33802;SDS011;20110;53.120;5.786;2023-04-23T10:27:02;16.55;;;10.75;;
33802;SDS011;20110;53.120;5.786;2023-04-23T10:29:33;15.23;;;8.60;;
33802;SDS011;20110;53.120;5.786;2023-04-23T10:32:04;11.93;;;7.93;;
33802;SDS011;20110;53.120;5.786;2023-04-23T10:34:30;12.13;;;7.63;;
33802;SDS011;20110;53.120;5.786;2023-04-23T10:36:58;9.88;;;5.82;;
33802;SDS011;20110;53.120;5.786;2023-04-23T10:39:31;6.15;;;5.07;;
33802;SDS011;20110;53.120;5.786;2023-04-23T10:41:59;7.97;;;5.07;;
33802;SDS011;20110;53.120;5.786;2023-04-23T10:47:02;13.23;;;7.40;;
33802;SDS011;20110;53.120;5.786;2023-04-23T10:49:32;8.10;;;5.80;;
33802;SDS011;20110;53.120;5.786;2023-04-23T10:52:00;10.43;;;5.95;;
33802;SDS011;20110;53.120;5.786;2023-04-23T10:54:29;9.27;;;5.22;;
33802;SDS011;20110;53.120;5.786;2023-04-23T10:57:04;6.85;;;4.88;;
33802;SDS011;20110;53.120;5.786;2023-04-23T10:59:32;9.18;;;4.72;;
33802;SDS011;20110;53.120;5.786;2023-04-23T11:02:09;4.30;;;3.67;;
33802;SDS011;20110;53.120;5.786;2023-04-23T11:04:41;5.00;;;4.50;;
33802;SDS011;20110;53.120;5.786;2023-04-23T11:07:13;5.95;;;3.83;;
33802;SDS011;20110;53.120;5.786;2023-04-23T11:09:45;4.47;;;3.20;;
33802;SDS011;20110;53.120;5.786;2023-04-23T11:14:56;7.15;;;3.40;;
33802;SDS011;20110;53.120;5.786;2023-04-23T11:22:35;5.95;;;5.38;;
33802;SDS011;20110;53.120;5.786;2023-04-23T11:25:03;5.95;;;4.75;;
33802;SDS011;20110;53.120;5.786;2023-04-23T11:27:41;6.95;;;4.05;;
33802;SDS011;20110;53.120;5.786;2023-04-23T11:30:11;5.38;;;4.88;;
33802;SDS011;20110;53.120;5.786;2023-04-23T11:32:42;6.00;;;5.30;;
33802;SDS011;20110;53.120;5.786;2023-04-23T11:35:13;12.68;;;4.50;;
33802;SDS011;20110;53.120;5.786;2023-04-23T11:37:44;11.00;;;5.18;;
33802;SDS011;20110;53.120;5.786;2023-04-23T11:40:17;6.30;;;4.60;;
33802;SDS011;20110;53.120;5.786;2023-04-23T11:45:19;5.35;;;4.30;;
33802;SDS011;20110;53.120;5.786;2023-04-23T11:47:48;7.80;;;4.65;;
33802;SDS011;20110;53.120;5.786;2023-04-23T11:50:23;6.43;;;4.47;;
33802;SDS011;20110;53.120;5.786;2023-04-23T11:52:54;10.40;;;4.60;;
33802;SDS011;20110;53.120;5.786;2023-04-23T11:55:21;8.05;;;4.63;;
33802;SDS011;20110;53.120;5.786;2023-04-23T11:57:49;10.05;;;5.22;;
33802;SDS011;20110;53.120;5.786;2023-04-23T12:00:20;8.35;;;4.07;;
33802;SDS011;20110;53.120;5.786;2023-04-23T12:02:50;6.43;;;4.07;;
33802;SDS011;20110;53.120;5.786;2023-04-23T12:05:21;6.78;;;3.78;;
33802;SDS011;20110;53.120;5.786;2023-04-23T12:10:58;8.82;;;3.03;;
33802;SDS011;20110;53.120;5.786;2023-04-23T12:13:27;12.82;;;3.40;;
33802;SDS011;20110;53.120;5.786;2023-04-23T12:15:58;8.25;;;3.38;;
33802;SDS011;20110;53.120;5.786;2023-04-23T12:18:33;4.85;;;2.72;;
33802;SDS011;20110;53.120;5.786;2023-04-23T12:23:35;7.53;;;3.60;;
33802;SDS011;20110;53.120;5.786;2023-04-23T12:26:11;6.57;;;2.58;;
33802;SDS011;20110;53.120;5.786;2023-04-23T12:28:49;8.02;;;3.22;;
33802;SDS011;20110;53.120;5.786;2023-04-23T12:31:19;8.95;;;2.40;;
33802;SDS011;20110;53.120;5.786;2023-04-23T12:36:36;10.38;;;3.15;;
33802;SDS011;20110;53.120;5.786;2023-04-23T12:42:04;10.55;;;3.45;;
33802;SDS011;20110;53.120;5.786;2023-04-23T12:44:36;4.20;;;2.25;;
33802;SDS011;20110;53.120;5.786;2023-04-23T12:47:03;8.55;;;2.58;;
33802;SDS011;20110;53.120;5.786;2023-04-23T12:49:39;10.85;;;2.40;;
33802;SDS011;20110;53.120;5.786;2023-04-23T12:52:07;7.18;;;2.50;;
33802;SDS011;20110;53.120;5.786;2023-04-23T12:54:37;6.40;;;3.13;;
33802;SDS011;20110;53.120;5.786;2023-04-23T12:57:05;10.02;;;3.47;;
33802;SDS011;20110;53.120;5.786;2023-04-23T12:59:34;9.35;;;4.13;;
33802;SDS011;20110;53.120;5.786;2023-04-23T13:02:00;10.30;;;3.15;;
33802;SDS011;20110;53.120;5.786;2023-04-23T13:04:29;9.15;;;2.90;;
33802;SDS011;20110;53.120;5.786;2023-04-23T13:06:57;9.43;;;2.65;;
33802;SDS011;20110;53.120;5.786;2023-04-23T13:09:24;6.80;;;2.78;;
33802;SDS011;20110;53.120;5.786;2023-04-23T13:11:52;8.43;;;2.40;;
33802;SDS011;20110;53.120;5.786;2023-04-23T13:14:18;10.88;;;3.05;;
33802;SDS011;20110;53.120;5.786;2023-04-23T13:16:45;9.48;;;2.08;;
33802;SDS011;20110;53.120;5.786;2023-04-23T13:19:11;11.77;;;3.20;;
33802;SDS011;20110;53.120;5.786;2023-04-23T13:21:38;7.70;;;2.90;;
33802;SDS011;20110;53.120;5.786;2023-04-23T13:24:04;8.27;;;2.53;;
33802;SDS011;20110;53.120;5.786;2023-04-23T13:26:30;8.75;;;2.28;;
33802;SDS011;20110;53.120;5.786;2023-04-23T13:29:00;7.22;;;2.30;;
33802;SDS011;20110;53.120;5.786;2023-04-23T13:31:26;6.35;;;2.33;;
33802;SDS011;20110;53.120;5.786;2023-04-23T13:33:52;7.57;;;3.17;;
33802;SDS011;20110;53.120;5.786;2023-04-23T13:36:19;10.02;;;2.72;;
33802;SDS011;20110;53.120;5.786;2023-04-23T13:38:45;5.47;;;2.67;;
33802;SDS011;20110;53.120;5.786;2023-04-23T13:41:12;7.38;;;2.28;;
33802;SDS011;20110;53.120;5.786;2023-04-23T13:43:38;6.25;;;2.65;;
33802;SDS011;20110;53.120;5.786;2023-04-23T13:46:04;6.70;;;2.10;;
33802;SDS011;20110;53.120;5.786;2023-04-23T13:48:30;10.93;;;2.25;;
33802;SDS011;20110;53.120;5.786;2023-04-23T13:50:57;7.07;;;2.30;;
33802;SDS011;20110;53.120;5.786;2023-04-23T13:53:25;7.63;;;2.65;;
33802;SDS011;20110;53.120;5.786;2023-04-23T13:55:53;12.18;;;2.30;;
33802;SDS011;20110;53.120;5.786;2023-04-23T13:58:20;5.43;;;2.40;;
33802;SDS011;20110;53.120;5.786;2023-04-23T14:00:47;7.82;;;3.00;;
33802;SDS011;20110;53.120;5.786;2023-04-23T14:03:14;6.00;;;1.50;;
33802;SDS011;20110;53.120;5.786;2023-04-23T14:05:39;4.40;;;2.25;;
33802;SDS011;20110;53.120;5.786;2023-04-23T14:08:05;12.18;;;2.72;;
33802;SDS011;20110;53.120;5.786;2023-04-23T14:10:32;8.60;;;2.47;;
33802;SDS011;20110;53.120;5.786;2023-04-23T14:13:01;6.28;;;1.98;;
33802;SDS011;20110;53.120;5.786;2023-04-23T14:15:28;13.20;;;2.33;;
33802;SDS011;20110;53.120;5.786;2023-04-23T14:17:54;5.43;;;2.35;;
33802;SDS011;20110;53.120;5.786;2023-04-23T14:20:20;10.32;;;2.50;;
33802;SDS011;20110;53.120;5.786;2023-04-23T14:22:47;8.23;;;2.40;;
33802;SDS011;20110;53.120;5.786;2023-04-23T14:25:35;4.10;;;2.05;;
33802;SDS011;20110;53.120;5.786;2023-04-23T14:28:22;13.95;;;2.33;;
33802;SDS011;20110;53.120;5.786;2023-04-23T14:30:56;10.98;;;3.42;;
33802;SDS011;20110;53.120;5.786;2023-04-23T14:33:22;6.05;;;2.40;;
33802;SDS011;20110;53.120;5.786;2023-04-23T14:35:48;9.75;;;2.10;;
33802;SDS011;20110;53.120;5.786;2023-04-23T14:38:14;9.63;;;2.22;;
33802;SDS011;20110;53.120;5.786;2023-04-23T14:40:39;9.75;;;2.33;;
33802;SDS011;20110;53.120;5.786;2023-04-23T14:43:05;10.07;;;2.33;;
33802;SDS011;20110;53.120;5.786;2023-04-23T14:45:31;6.68;;;2.35;;